Tango Too — ZJL9226 — position and weather

sailwx.info

Track history (hours):
 
Tides and Currents Weather Stations Pressure Air Temp Water Temp Dewpoint Dewpoint Depression Visibility Wind Speed Wind Dir Waves Ship Positions

Tango Too

Last reported at 2017-Nov-04 13:34 UTC. Time now 2017-Nov-20 15:31 UTC.
Position N 38°20' W 009°32'.
Warning: this ship's position is 16 days out of date.

Length 20 m.

Type: Pleasure craft. MMSI: 378388000.

Date/timePositionNaut miles runAvg speedWind from/ knotsBaromVisibWave heightAir tempDewpointWater temp
2017-Nov-04 13:34N 38°20' W 009°32'2 7.7
2017-Nov-04 13:22N 38°21' W 009°32'3 7.9
2017-Nov-04 13:00N 38°24' W 009°31'4 7.9
2017-Nov-04 12:30N 38°28' W 009°29'4 8.1
2017-Nov-04 12:01N 38°32' W 009°27'4 8.6
2017-Nov-04 11:30N 38°36' W 009°26'4 8.9
2017-Nov-04 11:00N 38°40' W 009°25'0 0.3
2017-Nov-04 10:31N 38°40' W 009°25'1 2.1
2017-Nov-04 09:59N 38°41' W 009°25'0 0.0
2017-Nov-04 09:29N 38°41' W 009°25'0 0.0
2017-Nov-04 08:56N 38°41' W 009°25'0 0.0
2017-Nov-04 08:29N 38°41' W 009°25'0 0.0
2017-Nov-04 07:59N 38°41' W 009°25'0 0.0
2017-Nov-03 22:44N 38°41' W 009°25'0 0.0
2017-Nov-03 22:29N 38°41' W 009°25'0 0.0
2017-Nov-03 21:50N 38°41' W 009°25'0 0.0
2017-Nov-03 21:23N 38°41' W 009°25'0 0.0
2017-Nov-03 18:31N 38°41' W 009°25'0 0.0
2017-Nov-03 18:04N 38°41' W 009°25'0 0.0
2017-Nov-03 17:58N 38°41' W 009°25'0 0.0
2017-Nov-03 17:22N 38°41' W 009°25'0 0.0
2017-Nov-03 16:58N 38°41' W 009°25'0 0.0
2017-Nov-03 16:28N 38°41' W 009°25'0 0.0
2017-Nov-03 15:22N 38°41' W 009°25'0 0.0
2017-Nov-03 14:58N 38°41' W 009°25'0 0.0
2017-Nov-03 14:25N 38°41' W 009°25'0 0.0
2017-Nov-03 13:46N 38°41' W 009°25'0 0.0
2017-Nov-03 13:22N 38°41' W 009°25'0 0.0
2017-Nov-03 12:58N 38°41' W 009°25'0 0.0
2017-Nov-03 12:22N 38°41' W 009°25'0 0.0
2017-Nov-03 11:58N 38°41' W 009°25'  
2017-Oct-28 15:57N 38°42' W 009°25'3 6.3
2017-Oct-28 15:25N 38°40' W 009°21'3 7.8
2017-Oct-28 14:59N 38°41' W 009°17'3 4.9
2017-Oct-28 14:21N 38°41' W 009°13'2 5.5
2017-Oct-28 13:59N 38°41' W 009°15'3 5.2
2017-Oct-28 13:29N 38°40' W 009°18'0 0.3
2017-Oct-28 13:00N 38°41' W 009°19'1 1.5
2017-Oct-28 12:27N 38°40' W 009°19'2 4.5
2017-Oct-28 11:59N 38°38' W 009°21'3 5.9
2017-Oct-28 11:26N 38°41' W 009°24'1 2.9
2017-Oct-28 10:59N 38°41' W 009°25'0 0.0
2017-Oct-28 10:18N 38°41' W 009°25'0 0.0
2017-Oct-28 10:00N 38°41' W 009°25'  
Track history (hours):
 
Tides and Currents Weather Stations Pressure Air Temp Water Temp Dewpoint Dewpoint Depression Visibility Wind Speed Wind Dir Waves Ship Positions

Tango Too

Last reported at 2017-Nov-04 13:34 UTC. Time now 2017-Nov-20 15:31 UTC.
Position N 38°20' W 009°32'.
Warning: this ship's position is 16 days out of date.

Length 20 m.

Type: Pleasure craft. MMSI: 378388000.

Date/timePositionNaut miles runAvg speedWind from/ knotsBaromVisibWave heightAir tempDewpointWater temp
2017-Nov-04 13:34N 38°20' W 009°32'2 7.7
2017-Nov-04 13:22N 38°21' W 009°32'3 7.9
2017-Nov-04 13:00N 38°24' W 009°31'4 7.9
2017-Nov-04 12:30N 38°28' W 009°29'4 8.1
2017-Nov-04 12:01N 38°32' W 009°27'4 8.6
2017-Nov-04 11:30N 38°36' W 009°26'4 8.9
2017-Nov-04 11:00N 38°40' W 009°25'0 0.3
2017-Nov-04 10:31N 38°40' W 009°25'1 2.1
2017-Nov-04 09:59N 38°41' W 009°25'0 0.0
2017-Nov-04 09:29N 38°41' W 009°25'0 0.0
2017-Nov-04 08:56N 38°41' W 009°25'0 0.0
2017-Nov-04 08:29N 38°41' W 009°25'0 0.0
2017-Nov-04 07:59N 38°41' W 009°25'0 0.0
2017-Nov-03 22:44N 38°41' W 009°25'0 0.0
2017-Nov-03 22:29N 38°41' W 009°25'0 0.0
2017-Nov-03 21:50N 38°41' W 009°25'0 0.0
2017-Nov-03 21:23N 38°41' W 009°25'0 0.0
2017-Nov-03 18:31N 38°41' W 009°25'0 0.0
2017-Nov-03 18:04N 38°41' W 009°25'0 0.0
2017-Nov-03 17:58N 38°41' W 009°25'0 0.0
2017-Nov-03 17:22N 38°41' W 009°25'0 0.0
2017-Nov-03 16:58N 38°41' W 009°25'0 0.0
2017-Nov-03 16:28N 38°41' W 009°25'0 0.0
2017-Nov-03 15:22N 38°41' W 009°25'0 0.0
2017-Nov-03 14:58N 38°41' W 009°25'0 0.0
2017-Nov-03 14:25N 38°41' W 009°25'0 0.0
2017-Nov-03 13:46N 38°41' W 009°25'0 0.0
2017-Nov-03 13:22N 38°41' W 009°25'0 0.0
2017-Nov-03 12:58N 38°41' W 009°25'0 0.0
2017-Nov-03 12:22N 38°41' W 009°25'0 0.0
2017-Nov-03 11:58N 38°41' W 009°25'  
2017-Oct-28 15:57N 38°42' W 009°25'3 6.3
2017-Oct-28 15:25N 38°40' W 009°21'3 7.8
2017-Oct-28 14:59N 38°41' W 009°17'3 4.9
2017-Oct-28 14:21N 38°41' W 009°13'2 5.5
2017-Oct-28 13:59N 38°41' W 009°15'3 5.2
2017-Oct-28 13:29N 38°40' W 009°18'0 0.3
2017-Oct-28 13:00N 38°41' W 009°19'1 1.5
2017-Oct-28 12:27N 38°40' W 009°19'2 4.5
2017-Oct-28 11:59N 38°38' W 009°21'3 5.9
2017-Oct-28 11:26N 38°41' W 009°24'1 2.9
2017-Oct-28 10:59N 38°41' W 009°25'0 0.0
2017-Oct-28 10:18N 38°41' W 009°25'0 0.0
2017-Oct-28 10:00N 38°41' W 009°25'  

Dump ship's entire track history